createdAt,value
2019-02-05T00:00:26.387Z,10.53
2019-02-05T00:02:55.684Z,9.53
2019-02-05T00:05:24.712Z,9.33
2019-02-05T00:07:53.722Z,10.57
2019-02-05T00:10:22.740Z,10.57
2019-02-05T00:12:51.745Z,10.43
2019-02-05T00:15:20.721Z,9.00
2019-02-05T00:17:50.096Z,10.70
2019-02-05T00:20:19.078Z,13.73
2019-02-05T00:22:48.127Z,13.67
2019-02-05T00:25:17.117Z,10.53
2019-02-05T00:27:46.129Z,11.50
2019-02-05T00:30:15.236Z,12.37
2019-02-05T00:32:44.683Z,10.13
2019-02-05T00:35:13.811Z,10.30
2019-02-05T00:37:42.940Z,13.50
2019-02-05T00:40:11.964Z,9.20
2019-02-05T00:42:41.004Z,10.37
2019-02-05T00:45:10.683Z,9.27
2019-02-05T00:47:39.993Z,10.73
2019-02-05T00:50:09.544Z,9.80
2019-02-05T00:52:38.583Z,9.17
2019-02-05T00:55:08.286Z,9.20
2019-02-05T00:57:37.311Z,12.43
2019-02-05T01:00:08.427Z,9.70
2019-02-05T01:02:37.654Z,9.27
2019-02-05T01:05:06.805Z,8.83
2019-02-05T01:07:35.811Z,10.37
2019-02-05T01:10:05.547Z,8.37
2019-02-05T01:12:34.615Z,9.73
2019-02-05T01:15:04.423Z,11.03
2019-02-05T01:17:33.607Z,8.77
2019-02-05T01:20:02.703Z,10.57
2019-02-05T01:22:31.783Z,9.03
2019-02-05T01:25:00.842Z,10.00
2019-02-05T01:27:29.916Z,9.40
2019-02-05T01:29:58.986Z,9.20
2019-02-05T01:32:28.344Z,9.37
2019-02-05T01:34:57.324Z,9.47
2019-02-05T01:37:26.485Z,9.57
2019-02-05T01:39:55.635Z,7.97
2019-02-05T01:42:24.610Z,8.97
2019-02-05T01:44:53.674Z,11.50
2019-02-05T01:47:22.679Z,9.37
2019-02-05T01:49:51.735Z,9.50
2019-02-05T01:52:20.815Z,9.33
2019-02-05T01:54:49.790Z,11.23
2019-02-05T01:57:18.785Z,10.97
2019-02-05T01:59:47.893Z,8.80
2019-02-05T02:02:17.187Z,8.90
2019-02-05T02:04:46.199Z,11.10
2019-02-05T02:07:15.265Z,10.70
2019-02-05T02:09:44.274Z,8.63
2019-02-05T02:12:13.266Z,9.30
2019-02-05T02:14:42.290Z,8.40
2019-02-05T02:17:11.653Z,10.27
2019-02-05T02:19:40.677Z,9.60
2019-02-05T02:22:09.685Z,9.03
2019-02-05T02:24:38.779Z,9.63
2019-02-05T02:27:07.755Z,8.67
2019-02-05T02:29:36.753Z,9.77
2019-02-05T02:32:05.908Z,9.23
2019-02-05T02:34:34.898Z,8.70
2019-02-05T02:37:03.867Z,10.73
2019-02-05T02:39:32.955Z,10.37
2019-02-05T02:42:02.014Z,10.03
2019-02-05T02:44:31.083Z,11.93
2019-02-05T02:47:00.177Z,9.63
2019-02-05T02:49:29.209Z,9.53
2019-02-05T02:51:58.212Z,10.13
2019-02-05T02:54:27.298Z,9.37
2019-02-05T02:57:04.489Z,9.63
2019-02-05T02:59:27.115Z,9.30
2019-02-05T03:01:56.109Z,9.47
2019-02-05T03:04:25.199Z,9.03
2019-02-05T03:06:54.188Z,11.00
2019-02-05T03:09:23.356Z,10.30
2019-02-05T03:11:52.384Z,9.77
2019-02-05T03:14:21.402Z,10.00
2019-02-05T03:16:50.500Z,9.10
2019-02-05T03:19:19.610Z,9.33
2019-02-05T03:21:49.535Z,9.07
2019-02-05T03:24:18.635Z,9.67
2019-02-05T03:26:47.699Z,9.30
2019-02-05T03:29:16.724Z,10.83
2019-02-05T03:31:45.825Z,9.93
2019-02-05T03:34:14.872Z,10.20
2019-02-05T03:36:43.900Z,10.00
2019-02-05T03:39:12.962Z,9.87
2019-02-05T03:41:41.980Z,11.73
2019-02-05T03:44:11.050Z,10.33
2019-02-05T03:46:40.035Z,10.33
2019-02-05T03:49:09.527Z,9.20
2019-02-05T03:51:52.303Z,9.70
2019-02-05T03:54:34.952Z,10.27
2019-02-05T03:57:30.898Z,10.40
2019-02-05T04:00:15.801Z,10.30
2019-02-05T04:03:15.942Z,10.67
2019-02-05T04:06:04.326Z,10.43
2019-02-05T04:08:58.418Z,9.97
2019-02-05T04:11:49.755Z,9.53
2019-02-05T04:14:41.844Z,10.97
2019-02-05T04:17:28.926Z,9.53
2019-02-05T04:20:03.483Z,10.60
2019-02-05T04:23:09.550Z,11.83
2019-02-05T04:25:54.820Z,11.67
2019-02-05T04:28:31.149Z,12.00
2019-02-05T04:31:18.100Z,11.10
2019-02-05T04:34:15.385Z,11.37
2019-02-05T04:37:12.827Z,10.90
2019-02-05T04:39:58.083Z,11.37
2019-02-05T04:42:42.849Z,10.90
2019-02-05T04:45:34.498Z,12.17
2019-02-05T04:48:34.743Z,12.40
2019-02-05T04:51:22.871Z,10.73
2019-02-05T04:54:03.320Z,11.70
2019-02-05T04:56:50.087Z,12.70
2019-02-05T04:59:41.834Z,11.40
2019-02-05T05:02:19.919Z,11.17
2019-02-05T05:04:52.001Z,12.40
2019-02-05T05:07:38.585Z,11.27
2019-02-05T05:10:07.879Z,13.20
2019-02-05T05:12:36.961Z,13.07
2019-02-05T05:15:07.155Z,12.53
2019-02-05T05:17:36.155Z,13.67
2019-02-05T05:20:06.210Z,12.60
2019-02-05T05:22:35.380Z,12.37
2019-02-05T05:25:05.263Z,13.37
2019-02-05T05:27:34.431Z,13.13
2019-02-05T05:30:05.039Z,13.63
2019-02-05T05:32:34.224Z,13.27
2019-02-05T05:35:03.631Z,12.70
2019-02-05T05:37:32.686Z,12.80
2019-02-05T05:40:01.854Z,13.57
2019-02-05T05:42:31.057Z,12.37
2019-02-05T05:45:00.332Z,13.33
2019-02-05T05:47:29.507Z,12.80
2019-02-05T05:49:58.557Z,13.40
2019-02-05T05:52:27.716Z,13.17
2019-02-05T05:54:56.934Z,13.00
2019-02-05T05:57:26.374Z,13.30
2019-02-05T05:59:55.470Z,12.33
2019-02-05T06:02:24.481Z,13.07
2019-02-05T06:04:53.552Z,12.40
2019-02-05T06:07:22.707Z,12.30
2019-02-05T06:09:51.794Z,13.63
2019-02-05T06:12:20.811Z,13.57
2019-02-05T06:14:50.180Z,13.20
2019-02-05T06:17:19.358Z,13.43
2019-02-05T06:19:48.442Z,12.70
2019-02-05T06:22:17.436Z,12.70
2019-02-05T06:24:46.543Z,12.50
2019-02-05T06:27:15.608Z,13.70
2019-02-05T06:29:51.955Z,12.17
2019-02-05T06:32:21.047Z,13.83
2019-02-05T06:34:50.147Z,15.33
2019-02-05T06:37:19.154Z,13.37
2019-02-05T06:39:48.282Z,15.07
2019-02-05T06:42:17.419Z,13.40
2019-02-05T06:44:46.876Z,13.70
2019-02-05T06:47:15.963Z,15.27
2019-02-05T06:49:45.155Z,17.40
2019-02-05T06:52:14.279Z,15.30
2019-02-05T06:54:43.330Z,14.90
2019-02-05T06:57:12.427Z,17.50
2019-02-05T06:59:41.491Z,19.87
2019-02-05T07:02:10.907Z,15.97
2019-02-05T07:04:39.945Z,19.40
2019-02-05T07:07:08.960Z,15.23
2019-02-05T07:09:38.068Z,16.43
2019-02-05T07:12:07.233Z,15.57
2019-02-05T07:14:36.283Z,18.07
2019-02-05T07:17:05.780Z,21.10
2019-02-05T07:19:35.327Z,16.20
2019-02-05T07:22:04.464Z,15.40
2019-02-05T07:24:33.828Z,15.77
2019-02-05T07:27:03.072Z,18.27
2019-02-05T07:29:32.130Z,14.90
2019-02-05T07:32:01.297Z,15.93
2019-02-05T07:34:30.655Z,14.43
2019-02-05T07:36:59.734Z,14.90
2019-02-05T07:39:28.829Z,14.83
2019-02-05T07:41:57.917Z,14.10
2019-02-05T07:44:26.974Z,15.37
2019-02-05T07:46:56.001Z,14.73
2019-02-05T07:49:25.073Z,15.10
2019-02-05T07:51:54.562Z,14.33
2019-02-05T07:54:23.715Z,15.40
2019-02-05T07:56:52.810Z,13.93
2019-02-05T07:59:21.977Z,14.70
2019-02-05T08:01:51.051Z,15.40
2019-02-05T08:04:20.406Z,16.70
2019-02-05T08:06:49.491Z,15.97
2019-02-05T08:09:18.789Z,15.00
2019-02-05T08:11:48.955Z,14.77
2019-02-05T08:14:18.143Z,15.67
2019-02-05T08:16:47.969Z,17.00
2019-02-05T08:19:17.226Z,14.47
2019-02-05T08:21:46.322Z,18.15
2019-02-05T08:24:15.563Z,16.47
2019-02-05T08:26:44.695Z,17.10
2019-02-05T08:29:21.356Z,15.33
2019-02-05T08:31:44.725Z,19.00
2019-02-05T08:34:13.839Z,14.53
2019-02-05T08:36:42.934Z,17.50
2019-02-05T08:39:11.933Z,16.27
2019-02-05T08:41:41.092Z,15.10
2019-02-05T08:44:10.191Z,15.53
2019-02-05T08:46:39.288Z,15.70
2019-02-05T08:49:08.370Z,19.70
2019-02-05T08:51:37.547Z,15.67
2019-02-05T08:54:06.687Z,15.43
2019-02-05T08:56:35.715Z,16.63
2019-02-05T08:59:04.856Z,17.20
2019-02-05T09:01:33.991Z,15.37
2019-02-05T09:04:03.012Z,16.60
2019-02-05T09:06:35.353Z,17.07
2019-02-05T09:09:04.082Z,15.70
2019-02-05T09:11:33.102Z,16.53
2019-02-05T09:14:10.513Z,19.67
2019-02-05T09:16:32.822Z,16.57
2019-02-05T09:19:02.105Z,16.13
2019-02-05T09:21:31.294Z,16.30
2019-02-05T09:24:00.389Z,16.87
2019-02-05T09:26:29.480Z,17.23
2019-02-05T09:28:58.612Z,18.90
2019-02-05T09:31:27.788Z,16.33
2019-02-05T09:33:56.875Z,16.00
2019-02-05T09:36:25.927Z,16.53
2019-02-05T09:38:55.003Z,15.47
2019-02-05T09:41:24.165Z,16.20
2019-02-05T09:43:53.271Z,16.77
2019-02-05T09:46:22.297Z,16.90
2019-02-05T09:48:51.398Z,15.87
2019-02-05T09:51:20.726Z,16.47
2019-02-05T09:53:49.791Z,15.40
2019-02-05T09:56:18.904Z,15.73
2019-02-05T09:58:47.969Z,17.10
2019-02-05T10:01:16.989Z,16.80
2019-02-05T10:03:45.969Z,16.23
2019-02-05T10:06:15.103Z,17.33
2019-02-05T10:08:44.287Z,15.77
2019-02-05T10:11:13.287Z,16.50
2019-02-05T10:13:42.446Z,16.07
2019-02-05T10:16:11.506Z,15.90
2019-02-05T10:18:40.587Z,15.87
2019-02-05T10:21:09.575Z,16.27
2019-02-05T10:23:38.599Z,16.57
2019-02-05T10:26:08.007Z,17.07
2019-02-05T10:28:37.051Z,17.17
2019-02-05T10:31:06.103Z,17.67
2019-02-05T10:33:35.160Z,15.70
2019-02-05T10:36:04.699Z,15.67
2019-02-05T10:38:33.777Z,17.03
2019-02-05T10:41:04.100Z,15.67
2019-02-05T10:43:33.211Z,15.63
2019-02-05T10:46:02.273Z,14.83
2019-02-05T10:48:31.366Z,16.03
2019-02-05T10:51:00.505Z,15.23
2019-02-05T10:53:29.506Z,16.80
2019-02-05T10:55:58.595Z,17.07
2019-02-05T10:58:27.959Z,15.03
2019-02-05T11:00:57.122Z,15.23
2019-02-05T11:03:26.211Z,16.87
2019-02-05T11:05:55.230Z,15.40
2019-02-05T11:08:24.235Z,14.97
2019-02-05T11:10:53.319Z,15.00
2019-02-05T11:13:22.327Z,14.23
2019-02-05T11:15:51.732Z,14.90
2019-02-05T11:18:20.857Z,15.60
2019-02-05T11:20:49.915Z,15.67
2019-02-05T11:23:18.983Z,15.67
2019-02-05T11:25:47.972Z,13.97
2019-02-05T11:28:17.119Z,14.80
2019-02-05T11:30:46.235Z,14.90
2019-02-05T11:33:15.460Z,15.20
2019-02-05T11:35:44.509Z,14.77
2019-02-05T11:38:13.780Z,15.17
2019-02-05T11:40:42.790Z,14.47
2019-02-05T11:43:11.890Z,15.27
2019-02-05T11:45:40.918Z,13.00
2019-02-05T11:48:11.580Z,13.27
2019-02-05T11:50:40.633Z,13.27
2019-02-05T11:53:09.768Z,12.27
2019-02-05T11:55:38.829Z,13.47
2019-02-05T11:58:07.925Z,14.83
2019-02-05T12:00:41.398Z,13.93
2019-02-05T12:03:10.666Z,13.30
2019-02-05T12:05:40.084Z,13.63
2019-02-05T12:08:09.166Z,11.93
2019-02-05T12:10:38.233Z,11.57
2019-02-05T12:13:07.395Z,13.63
2019-02-05T12:15:36.485Z,11.87
2019-02-05T12:18:05.973Z,12.53
2019-02-05T12:20:35.043Z,11.30
2019-02-05T12:23:04.660Z,11.97
2019-02-05T12:25:33.627Z,12.20
2019-02-05T12:28:02.645Z,13.53
2019-02-05T12:30:43.842Z,11.63
2019-02-05T12:33:03.235Z,11.80
2019-02-05T12:35:32.232Z,11.73
2019-02-05T12:38:01.539Z,12.63
2019-02-05T12:40:30.607Z,10.73
2019-02-05T12:42:59.706Z,10.03
2019-02-05T12:45:29.004Z,11.10
2019-02-05T12:47:58.093Z,10.80
2019-02-05T12:50:28.140Z,10.83
2019-02-05T12:52:57.402Z,10.77
2019-02-05T12:55:26.793Z,11.50
2019-02-05T12:57:56.103Z,10.70
2019-02-05T13:00:29.150Z,10.10
2019-02-05T13:02:58.218Z,9.77
2019-02-05T13:05:27.268Z,10.47
2019-02-05T13:07:56.362Z,10.27
2019-02-05T13:10:26.477Z,9.57
2019-02-05T13:12:55.479Z,10.20
2019-02-05T13:15:24.501Z,9.80
2019-02-05T13:17:53.496Z,9.77
2019-02-05T13:20:23.595Z,9.10
2019-02-05T13:22:52.592Z,9.33
2019-02-05T13:25:22.379Z,9.40
2019-02-05T13:27:51.391Z,8.50
2019-02-05T13:30:21.580Z,9.03
2019-02-05T13:32:50.591Z,9.70
2019-02-05T13:35:19.690Z,9.10
2019-02-05T13:37:50.148Z,9.80
2019-02-05T13:40:20.205Z,9.53
2019-02-05T13:42:49.179Z,10.47
2019-02-05T13:45:19.370Z,10.70
2019-02-05T13:47:48.361Z,10.60
2019-02-05T13:50:18.368Z,10.53
2019-02-05T13:52:47.792Z,10.87
2019-02-05T13:55:20.844Z,11.07
2019-02-05T13:57:50.036Z,9.80
2019-02-05T14:00:22.948Z,10.80
2019-02-05T14:02:51.939Z,11.50
2019-02-05T14:05:21.002Z,12.03
2019-02-05T14:07:50.059Z,9.47
2019-02-05T14:10:20.810Z,11.30
2019-02-05T14:12:49.878Z,10.00
2019-02-05T14:15:21.535Z,9.17
2019-02-05T14:17:51.975Z,8.67
2019-02-05T14:20:23.588Z,9.37
2019-02-05T14:22:52.568Z,8.60
2019-02-05T14:25:21.670Z,9.40
2019-02-05T14:27:50.663Z,8.43
2019-02-05T14:30:38.998Z,9.93
2019-02-05T14:33:08.104Z,8.03
2019-02-05T14:35:37.123Z,10.00
2019-02-05T14:38:06.749Z,11.07
2019-02-05T14:40:35.785Z,10.00
2019-02-05T14:43:05.025Z,8.43
2019-02-05T14:45:34.615Z,9.73
2019-02-05T14:48:04.471Z,9.30
2019-02-05T14:50:33.471Z,9.17
2019-02-05T14:53:02.548Z,9.20
2019-02-05T14:55:31.549Z,8.47
2019-02-05T14:58:00.534Z,14.07
2019-02-05T15:00:30.376Z,14.87
2019-02-05T15:03:01.903Z,8.70
2019-02-05T15:05:30.504Z,13.30
2019-02-05T15:07:59.481Z,10.23
2019-02-05T15:10:28.495Z,11.23
2019-02-05T15:12:57.504Z,8.43
2019-02-05T15:15:29.117Z,10.03
2019-02-05T15:17:57.335Z,10.83
2019-02-05T15:20:30.564Z,11.05
2019-02-05T15:22:59.544Z,8.97
2019-02-05T15:25:28.562Z,9.13
2019-02-05T15:27:57.640Z,9.20
2019-02-05T15:30:28.075Z,10.10
2019-02-05T15:33:02.912Z,8.73
2019-02-05T15:35:32.110Z,12.10
2019-02-05T15:38:01.075Z,14.77
2019-02-05T15:40:30.080Z,11.00
2019-02-05T15:42:59.076Z,10.00
2019-02-05T15:45:28.424Z,12.03
2019-02-05T15:47:57.421Z,10.70
2019-02-05T15:50:26.436Z,11.03
2019-02-05T15:52:55.453Z,10.87
2019-02-05T15:55:24.456Z,9.90
2019-02-05T15:57:53.511Z,11.07
2019-02-05T16:00:22.588Z,8.37
2019-02-05T16:02:51.568Z,10.67
2019-02-05T16:05:20.682Z,9.13
2019-02-05T16:07:49.656Z,7.37
2019-02-05T16:10:18.667Z,10.40
2019-02-05T16:12:47.711Z,8.67
2019-02-05T16:15:17.139Z,8.13
2019-02-05T16:17:46.117Z,8.90
2019-02-05T16:20:15.145Z,7.57
2019-02-05T16:22:44.193Z,8.00
2019-02-05T16:25:13.865Z,9.10
2019-02-05T16:27:42.837Z,9.17
2019-02-05T16:30:13.569Z,8.97
2019-02-05T16:32:42.557Z,9.63
2019-02-05T16:35:11.857Z,10.40
2019-02-05T16:37:40.900Z,9.17
2019-02-05T16:40:17.167Z,8.07
2019-02-05T16:42:48.766Z,7.43
2019-02-05T16:45:18.953Z,7.47
2019-02-05T16:47:48.015Z,10.17
2019-02-05T16:50:21.167Z,8.60
2019-02-05T16:52:50.206Z,8.00
2019-02-05T16:55:19.210Z,10.17
2019-02-05T16:57:48.381Z,9.97
2019-02-05T17:00:21.514Z,9.93
2019-02-05T17:02:50.603Z,9.73
2019-02-05T17:05:20.426Z,9.40
2019-02-05T17:07:49.559Z,8.83
2019-02-05T17:10:19.076Z,9.13
2019-02-05T17:12:48.455Z,8.97
2019-02-05T17:15:17.445Z,11.80
2019-02-05T17:17:46.605Z,8.73
2019-02-05T17:20:17.362Z,8.57
2019-02-05T17:22:46.390Z,9.77
2019-02-05T17:25:15.876Z,8.93
2019-02-05T17:27:45.239Z,8.97
2019-02-05T17:30:15.667Z,9.27
2019-02-05T17:32:44.700Z,9.13
2019-02-05T17:35:13.947Z,11.40
2019-02-05T17:37:42.942Z,10.33
2019-02-05T17:40:13.287Z,9.73
2019-02-05T17:42:42.547Z,10.13
2019-02-05T17:45:13.243Z,10.40
2019-02-05T17:47:42.248Z,9.00
2019-02-05T17:50:11.252Z,11.33
2019-02-05T17:52:40.320Z,10.43
2019-02-05T17:55:09.841Z,10.03
2019-02-05T17:57:39.130Z,9.23
2019-02-05T18:00:09.975Z,11.70
2019-02-05T18:02:39.082Z,8.57
2019-02-05T18:05:09.343Z,9.27
2019-02-05T18:07:38.450Z,9.90
2019-02-05T18:10:08.390Z,8.07
2019-02-05T18:12:37.480Z,8.37
2019-02-05T18:15:08.079Z,9.40
2019-02-05T18:17:37.152Z,8.50
2019-02-05T18:20:06.631Z,11.33
2019-02-05T18:22:35.805Z,9.00
2019-02-05T18:25:05.603Z,10.10
2019-02-05T18:27:34.895Z,9.70
2019-02-05T18:30:05.875Z,9.47
2019-02-05T18:32:35.202Z,10.27
2019-02-05T18:35:04.485Z,10.50
2019-02-05T18:37:33.543Z,8.73
2019-02-05T18:40:02.715Z,9.77
2019-02-05T18:42:31.757Z,11.43
2019-02-05T18:45:01.026Z,8.80
2019-02-05T18:47:30.143Z,9.33
2019-02-05T18:49:59.172Z,11.00
2019-02-05T18:52:28.269Z,11.50
2019-02-05T18:54:57.302Z,11.17
2019-02-05T18:57:26.409Z,9.23
2019-02-05T18:59:55.478Z,9.80
2019-02-05T19:02:24.492Z,9.57
2019-02-05T19:04:53.571Z,9.73
2019-02-05T19:07:22.696Z,10.40
2019-02-05T19:09:51.794Z,10.93
2019-02-05T19:12:21.309Z,10.20
2019-02-05T19:14:50.463Z,10.77
2019-02-05T19:17:19.480Z,10.30
2019-02-05T19:19:48.566Z,12.27
2019-02-05T19:22:17.808Z,11.77
2019-02-05T19:25:00.007Z,10.60
2019-02-05T19:27:29.113Z,11.17
2019-02-05T19:29:58.225Z,11.20
2019-02-05T19:32:28.959Z,12.40
2019-02-05T19:34:58.079Z,11.30
2019-02-05T19:37:27.295Z,10.53
2019-02-05T19:39:56.648Z,10.10
2019-02-05T19:42:25.777Z,10.83
2019-02-05T19:45:12.518Z,11.60
2019-02-05T19:47:41.817Z,11.33
2019-02-05T19:50:11.116Z,11.63
2019-02-05T19:52:40.506Z,12.67
2019-02-05T19:55:09.619Z,11.47
2019-02-05T19:57:39.269Z,12.40
2019-02-05T20:00:09.416Z,11.53
2019-02-05T20:02:38.512Z,10.30
2019-02-05T20:05:07.877Z,11.50
2019-02-05T20:07:37.014Z,9.77
2019-02-05T20:10:06.981Z,11.60
2019-02-05T20:12:36.071Z,12.00
2019-02-05T20:15:06.191Z,10.37
2019-02-05T20:17:35.224Z,13.53
2019-02-05T20:20:05.221Z,10.63
2019-02-05T20:22:34.364Z,11.40
2019-02-05T20:25:03.477Z,10.80
2019-02-05T20:27:32.536Z,11.83
2019-02-05T20:30:01.636Z,10.20
2019-02-05T20:32:30.824Z,10.13
2019-02-05T20:34:59.936Z,10.90
2019-02-05T20:37:29.100Z,10.40
2019-02-05T20:39:58.184Z,11.43
2019-02-05T20:42:27.641Z,11.70
2019-02-05T20:44:57.654Z,12.13
2019-02-05T20:47:26.716Z,11.17
2019-02-05T20:49:55.810Z,11.13
2019-02-05T20:52:24.787Z,10.27
2019-02-05T20:54:53.949Z,10.57
2019-02-05T20:57:23.196Z,10.20
2019-02-05T20:59:52.614Z,11.73
2019-02-05T21:02:21.699Z,12.30
2019-02-05T21:04:50.822Z,11.60
2019-02-05T21:07:19.917Z,11.77
2019-02-05T21:09:49.033Z,10.90
2019-02-05T21:12:18.181Z,11.73
2019-02-05T21:14:47.307Z,12.27
2019-02-05T21:17:16.483Z,11.40
2019-02-05T21:19:45.695Z,11.40
2019-02-05T21:22:14.868Z,12.47
2019-02-05T21:24:44.450Z,12.63
2019-02-05T21:27:13.577Z,11.47
2019-02-05T21:29:42.741Z,12.67
2019-02-05T21:32:12.181Z,12.20
2019-02-05T21:34:41.234Z,12.40
2019-02-05T21:37:10.316Z,12.13
2019-02-05T21:39:39.414Z,12.13
2019-02-05T21:42:08.573Z,11.27
2019-02-05T21:44:37.659Z,12.10
2019-02-05T21:47:06.766Z,12.43
2019-02-05T21:49:35.899Z,11.27
2019-02-05T21:52:04.951Z,11.80
2019-02-05T21:54:33.971Z,12.83
2019-02-05T21:57:03.029Z,12.03
2019-02-05T21:59:32.071Z,12.87
2019-02-05T22:02:01.253Z,12.07
2019-02-05T22:04:30.439Z,11.53
2019-02-05T22:06:59.586Z,12.47
2019-02-05T22:09:28.772Z,12.77
2019-02-05T22:11:58.065Z,13.13
2019-02-05T22:14:27.227Z,12.27
2019-02-05T22:16:56.403Z,12.70
2019-02-05T22:19:26.453Z,12.60
2019-02-05T22:21:55.651Z,12.13
2019-02-05T22:24:24.945Z,11.33
2019-02-05T22:26:54.184Z,12.60
2019-02-05T22:29:23.246Z,11.40
2019-02-05T22:31:52.390Z,11.93
2019-02-05T22:34:21.715Z,11.73
2019-02-05T22:36:50.785Z,11.67
2019-02-05T22:39:19.843Z,13.07
2019-02-05T22:41:49.103Z,13.00
2019-02-05T22:44:18.096Z,12.30
2019-02-05T22:46:47.510Z,12.37
2019-02-05T22:49:16.589Z,12.67
2019-02-05T22:51:45.995Z,12.57
2019-02-05T22:54:15.304Z,13.23
2019-02-05T22:56:44.783Z,13.27
2019-02-05T22:59:14.285Z,13.70
2019-02-05T23:01:56.642Z,15.80
2019-02-05T23:04:37.957Z,16.87
2019-02-05T23:07:14.987Z,16.63
2019-02-05T23:09:55.587Z,17.07
2019-02-05T23:12:29.485Z,17.07
2019-02-05T23:15:04.715Z,15.53
2019-02-05T23:17:33.800Z,16.93
2019-02-05T23:20:02.921Z,17.67
2019-02-05T23:22:32.019Z,17.10
2019-02-05T23:25:01.109Z,17.03
2019-02-05T23:27:30.123Z,15.33
2019-02-05T23:29:59.194Z,16.43
2019-02-05T23:32:28.302Z,15.97
2019-02-05T23:35:02.378Z,17.37
2019-02-05T23:37:28.179Z,16.80
2019-02-05T23:39:58.287Z,16.27
2019-02-05T23:42:27.454Z,15.10
2019-02-05T23:44:56.526Z,15.43
2019-02-05T23:47:25.604Z,14.73
2019-02-05T23:49:54.738Z,16.93
2019-02-05T23:52:23.759Z,17.23
2019-02-05T23:54:52.739Z,15.50
2019-02-05T23:57:22.026Z,14.37
2019-02-05T23:59:51.000Z,14.20
